Weather reports worldwide

Advertisment
Torino Venaria, Italy (16060): temperature & dewpoint: 15.01.2018 04:00:00 - 21.01.2018 04:00:00 (CET)Torino Venaria, Italy (16060): wind speed: 15.01.2018 04:00:00 - 21.01.2018 04:00:00 (CET)Torino Venaria, Italy (16060): wind direction: 15.01.2018 04:00:00 - 21.01.2018 04:00:00 (CET)Torino Venaria, Italy (16060): reduced air pressure: 15.01.2018 04:00:00 - 21.01.2018 04:00:00 (CET)Torino Venaria, Italy (16060): precipitation: 15.01.2018 04:00:00 - 21.01.2018 04:00:00 (CET)
Date & Time tt [°C] td [°C] ff [km/h] ff [kn] dd ppp [hPa] rr [mm]
21.01.2018 04:00:00 - - - - - - -
21.01.2018 03:00:00 1,2 -0,4 4 2 NE 1002,9 -
21.01.2018 02:00:00 1,5 -0,6 2 1 W 1002,4 -
21.01.2018 01:00:00 2,2 -0,3 2 1 E 1002,2 -
21.01.2018 00:00:00 2,7 -1,0 5 3 WNW 1003,5 -
20.01.2018 23:00:00 3,4 -1,4 4 2 NNE 1004,1 -
20.01.2018 22:00:00 4,2 -2,1 4 2 NNW 1005,1 -
20.01.2018 21:00:00 4,4 -3,0 4 2 NNE 1005,9 -
20.01.2018 20:00:00 5,1 -3,3 4 2 ENE 1006,1 -
20.01.2018 19:00:00 6,0 -4,0 2 1 NE 1006,7 0,0
20.01.2018 18:00:00 6,7 -4,5 4 2 NE 1006,9 -
20.01.2018 17:00:00 8,0 -4,9 5 3 NW 1006,7 -
20.01.2018 16:00:00 8,9 -8,8 2 1 ENE 1006,8 -
20.01.2018 15:00:00 9,7 -9,0 4 2 W 1007,0 -
20.01.2018 14:00:00 9,0 -8,7 2 1 W 1008,4 -
20.01.2018 13:00:00 9,0 -8,2 5 3 SSW 1010,0 0,0
20.01.2018 12:00:00 9,4 -7,0 2 1 SW 1010,8 -
20.01.2018 11:00:00 5,0 -4,2 2 1 WSW 1012,0 -
20.01.2018 10:00:00 2,2 -3,6 2 1 WSW 1012,4 -
20.01.2018 09:00:00 -1,3 -5,9 9 5 SSW 1012,7 -
20.01.2018 08:00:00 -2,4 -8,0 4 2 NE 1012,7 -
20.01.2018 07:00:00 -1,6 -7,8 5 3 WNW 1012,5 0,0
20.01.2018 06:00:00 -0,1 -7,0 4 2 ESE 1012,4 -
20.01.2018 05:00:00 0,2 -7,9 4 2 E 1011,9 -
20.01.2018 04:00:00 1,3 -8,6 4 2 N 1012,1 -
20.01.2018 03:00:00 5,2 -7,4 8 4 NE 1011,9 -
20.01.2018 02:00:00 -0,7 -8,7 5 3 NE 1011,4 -
20.01.2018 01:00:00 1,6 -8,6 2 1 S 1011,2 -
20.01.2018 00:00:00 2,8 -7,8 9 5 NW 1010,6 -
19.01.2018 23:00:00 2,8 -9,3 8 4 WSW 1010,0 -
19.01.2018 22:00:00 6,5 -9,2 9 5 W 1009,0 -
19.01.2018 21:00:00 6,4 -9,7 4 2 N 1008,7 -
19.01.2018 20:00:00 7,0 -8,3 24 13 WSW 1008,0 -
19.01.2018 19:00:00 7,4 -8,8 22 12 WSW 1008,0 0,0
19.01.2018 18:00:00 6,7 -8,6 18 10 W 1007,9 -
19.01.2018 17:00:00 12,2 -11,5 29 16 WNW 1006,7 -
19.01.2018 16:00:00 14,2 -6,8 9 5 W 1006,4 -
19.01.2018 15:00:00 15,1 -9,2 13 7 NNW 1005,1 -
19.01.2018 14:00:00 14,7 -2,8 8 4 SE 1005,1 -
19.01.2018 13:00:00 10,5 -1,7 8 4 E 1005,6 0,0
19.01.2018 12:00:00 7,6 -2,3 2 1 WNW 1006,8 -
19.01.2018 11:00:00 5,0 -1,3 5 3 SE 1007,5 -
19.01.2018 10:00:00 0,4 -1,2 2 1 N 1007,6 -
19.01.2018 09:00:00 -4,5 -7,6 4 2 WNW 1007,6 -
19.01.2018 08:00:00 -5,1 -8,4 5 3 W 1007,8 -
19.01.2018 07:00:00 -5,2 -8,7 2 1 NW 1007,6 0,0
19.01.2018 06:00:00 -5,3 -8,9 2 1 WNW 1007,4 -
19.01.2018 05:00:00 -4,3 -7,6 4 2 NW 1007,5 -
19.01.2018 04:00:00 -4,7 -8,7 4 2 NW 1008,5 -
19.01.2018 03:00:00 -3,9 -7,7 0 0 N 1008,6 -
19.01.2018 02:00:00 -3,8 -7,8 4 2 WSW 1009,5 -
19.01.2018 01:00:00 -2,9 -7,1 4 2 WNW 1009,7 0,0
19.01.2018 00:00:00 -2,3 -7,1 5 3 NW 1010,6 -
18.01.2018 23:00:00 -2,1 -6,9 5 3 NNE 1010,1 -
18.01.2018 22:00:00 -1,9 -6,7 4 2 WSW 1010,6 -
18.01.2018 21:00:00 -1,7 -6,9 5 3 W 1010,8 -
18.01.2018 20:00:00 -1,0 -7,5 2 1 WSW 1010,7 -
18.01.2018 19:00:00 1,5 -6,2 2 1 WNW 1010,5 0,0
18.01.2018 18:00:00 3,8 -6,6 4 2 WNW 1010,0 -
18.01.2018 17:00:00 8,4 -5,6 2 1 SW 1010,2 -
18.01.2018 16:00:00 8,8 -5,6 4 2 E 1010,4 -
18.01.2018 15:00:00 8,2 -5,4 8 4 ENE 1010,9 -
18.01.2018 14:00:00 7,8 -5,8 9 5 NE 1011,5 -
18.01.2018 13:00:00 7,3 -6,6 8 4 NE 1012,2 0,0
18.01.2018 12:00:00 6,7 -7,8 5 3 ENE 1013,0 -
18.01.2018 11:00:00 5,6 -6,1 8 4 ENE 1013,9 -
18.01.2018 10:00:00 1,4 -5,2 2 1 NW 1014,2 -
18.01.2018 09:00:00 -2,7 -7,5 2 1 W 1015,2 -
18.01.2018 08:00:00 -3,9 -9,4 8 4 NW 1014,9 -
18.01.2018 07:00:00 -4,4 -10,3 2 1 N 1014,7 0,0
18.01.2018 06:00:00 -3,5 -10,5 2 1 N 1014,6 -
18.01.2018 05:00:00 -2,5 -11,4 4 2 NNW 1014,6 -
18.01.2018 04:00:00 1,5 -10,5 4 2 NNE 1014,2 -
18.01.2018 03:00:00 3,6 -10,2 16 9 S 1013,9 -
18.01.2018 02:00:00 1,1 -10,5 9 5 S 1014,0 -
18.01.2018 01:00:00 2,3 -10,4 8 4 SSE 1014,5 0,0
18.01.2018 00:00:00 0,6 -12,2 4 2 N 1014,7 -
17.01.2018 23:00:00 3,2 -9,6 15 8 W 1014,6 -
17.01.2018 22:00:00 3,5 -9,6 16 9 W 1014,1 -
17.01.2018 21:00:00 5,1 -10,0 22 12 W 1013,7 -
17.01.2018 20:00:00 5,5 -8,9 26 14 W 1012,8 -
17.01.2018 19:00:00 5,4 -8,6 29 16 W 1011,8 0,0
17.01.2018 18:00:00 5,9 -9,7 28 15 W 1010,7 -
17.01.2018 17:00:00 7,2 -8,5 29 16 W 1009,6 -
17.01.2018 16:00:00 6,7 -5,4 13 7 W 1008,4 -
17.01.2018 15:00:00 8,3 -6,4 26 14 WSW 1006,3 -
17.01.2018 14:00:00 9,5 -6,9 22 12 W 1005,0 -
17.01.2018 13:00:00 8,3 -6,8 21 11 W 1004,7 0,0
17.01.2018 12:00:00 8,4 -4,9 22 12 WSW 1003,6 -
17.01.2018 11:00:00 6,3 -1,9 26 14 WSW 1004,4 -
17.01.2018 10:00:00 7,8 -3,5 26 14 WNW 1002,6 -
17.01.2018 09:00:00 8,4 -3,9 28 15 WSW 999,5 -
17.01.2018 08:00:00 1,6 -1,4 5 3 NW 999,9 -
17.01.2018 07:00:00 1,2 -1,2 8 4 ESE 1000,0 0,0
17.01.2018 06:00:00 0,6 -1,8 5 3 ESE 999,4 -
17.01.2018 05:00:00 0,9 -1,9 2 1 NE 998,8 -
17.01.2018 04:00:00 1,3 0,3 4 2 W 998,7 -
17.01.2018 03:00:00 -0,3 -1,6 4 2 NNE 998,4 -
17.01.2018 02:00:00 -1,8 -3,9 5 3 NW 999,0 -
17.01.2018 01:00:00 -1,7 -3,8 2 1 NNW 999,8 0,0
17.01.2018 00:00:00 -1,9 -4,0 5 3 NNW 1001,1 -
16.01.2018 23:00:00 -2,5 -5,2 4 2 NE 1001,8 -
16.01.2018 22:00:00 -2,5 -5,7 2 1 S 1001,8 -
16.01.2018 21:00:00 -1,4 -4,8 2 1 NW 1002,4 -
16.01.2018 20:00:00 -1,2 -5,3 4 2 WNW 1003,1 -
16.01.2018 19:00:00 1,2 -3,4 5 3 NW 1003,5 0,0
16.01.2018 18:00:00 2,4 -3,6 2 1 SSW 1003,8 -
16.01.2018 17:00:00 5,3 -2,4 4 2 NE 1004,4 -
16.01.2018 16:00:00 6,6 -1,4 2 1 S 1004,4 -
16.01.2018 15:00:00 6,6 -1,2 8 4 SE 1005,0 -
16.01.2018 14:00:00 6,2 -0,6 4 2 ESE 1006,0 -
16.01.2018 13:00:00 4,6 -0,7 4 2 SSW 1007,5 0,0
16.01.2018 12:00:00 3,3 1,8 2 1 WNW 1008,8 -
16.01.2018 11:00:00 2,6 1,9 4 2 WSW 1009,5 -
16.01.2018 10:00:00 2,1 1,2 2 1 NNW 1010,1 -
16.01.2018 09:00:00 1,2 0,0 4 2 NW 1010,4 -
16.01.2018 08:00:00 1,2 -0,1 0 0 N 1010,6 -
16.01.2018 07:00:00 1,2 -0,3 2 1 NNW 1011,0 0,0
16.01.2018 06:00:00 1,1 -0,4 4 2 W 1011,4 -
16.01.2018 05:00:00 1,5 0,2 4 2 NNE 1012,3 -
16.01.2018 04:00:00 1,0 -0,6 0 0 N 1013,2 -
16.01.2018 03:00:00 1,1 -0,4 2 1 ENE 1013,9 -
16.01.2018 02:00:00 0,9 -0,7 4 2 WNW 1014,6 -
16.01.2018 01:00:00 0,8 -1,0 4 2 NW 1015,6 0,0
16.01.2018 00:00:00 0,2 -2,1 4 2 W 1016,2 -
15.01.2018 23:00:00 0,5 -2,6 0 0 N 1016,9 -
15.01.2018 22:00:00 0,5 -3,5 2 1 W 1017,3 -
15.01.2018 21:00:00 1,9 -1,9 4 2 NE 1017,5 -
15.01.2018 20:00:00 2,1 -2,5 2 1 NE 1017,5 -
15.01.2018 19:00:00 3,1 -1,5 2 1 N 1017,9 0,0
15.01.2018 18:00:00 3,2 -2,2 4 2 SW 1018,2 -
15.01.2018 17:00:00 4,4 -1,5 8 4 SSW 1018,8 -
15.01.2018 16:00:00 5,5 -1,3 8 4 SSW 1019,0 -
15.01.2018 15:00:00 6,2 -1,3 5 3 SSE 1019,3 -
15.01.2018 14:00:00 6,6 -1,9 8 4 SSE 1019,8 -
15.01.2018 13:00:00 7,0 -1,0 2 1 W 1020,7 0,0
15.01.2018 12:00:00 5,7 0,2 2 1 SSE 1022,0 -
15.01.2018 11:00:00 2,7 2,0 0 0 N 1023,0 -
15.01.2018 10:00:00 1,1 0,4 4 2 WNW 1023,0 -
15.01.2018 09:00:00 0,0 -0,9 2 1 NW 1023,0 -
15.01.2018 08:00:00 -0,1 -1,1 0 0 N 1022,6 -
15.01.2018 07:00:00 -0,2 -1,2 4 2 WNW 1022,3 0,0
15.01.2018 06:00:00 -0,3 -1,3 0 0 N 1022,1 -
15.01.2018 05:00:00 -0,5 -1,5 4 2 W 1022,3 -
15.01.2018 04:00:00 -0,6 -1,8 2 1 W 1022,6 -

tt = temperature
td = dewpoint
ff = wind speed
dd = wind direction
ppp = reduced air pressure
rr = precipitation

Next stations